sensor_id;sensor_type;location;lat;lon;timestamp;P1;durP1;ratioP1;P2;durP2;ratioP2
50495;SDS011;38806;51.554;5.704;2023-08-06T00:01:16;8.25;;;4.40;;
50495;SDS011;38806;51.554;5.704;2023-08-06T00:03:18;8.40;;;5.00;;
50495;SDS011;38806;51.554;5.704;2023-08-06T00:05:18;7.20;;;5.13;;
50495;SDS011;38806;51.554;5.704;2023-08-06T00:07:20;8.10;;;4.32;;
50495;SDS011;38806;51.554;5.704;2023-08-06T00:09:21;8.40;;;5.18;;
50495;SDS011;38806;51.554;5.704;2023-08-06T00:11:21;7.30;;;4.50;;
50495;SDS011;38806;51.554;5.704;2023-08-06T00:13:21;7.88;;;4.57;;
50495;SDS011;38806;51.554;5.704;2023-08-06T00:15:21;8.60;;;4.47;;
50495;SDS011;38806;51.554;5.704;2023-08-06T00:17:22;7.55;;;3.95;;
50495;SDS011;38806;51.554;5.704;2023-08-06T00:19:22;8.18;;;4.80;;
50495;SDS011;38806;51.554;5.704;2023-08-06T00:21:22;9.63;;;5.00;;
50495;SDS011;38806;51.554;5.704;2023-08-06T00:23:22;8.70;;;5.43;;
50495;SDS011;38806;51.554;5.704;2023-08-06T00:25:23;6.53;;;4.22;;
50495;SDS011;38806;51.554;5.704;2023-08-06T00:27:23;10.25;;;5.50;;
50495;SDS011;38806;51.554;5.704;2023-08-06T00:29:23;8.82;;;4.93;;
50495;SDS011;38806;51.554;5.704;2023-08-06T00:31:23;7.75;;;4.22;;
50495;SDS011;38806;51.554;5.704;2023-08-06T00:33:24;9.35;;;4.63;;
50495;SDS011;38806;51.554;5.704;2023-08-06T00:35:24;6.55;;;4.82;;
50495;SDS011;38806;51.554;5.704;2023-08-06T00:37:24;6.75;;;4.63;;
50495;SDS011;38806;51.554;5.704;2023-08-06T00:39:24;6.60;;;4.35;;
50495;SDS011;38806;51.554;5.704;2023-08-06T00:41:24;9.33;;;6.13;;
50495;SDS011;38806;51.554;5.704;2023-08-06T00:43:25;6.47;;;3.85;;
50495;SDS011;38806;51.554;5.704;2023-08-06T00:45:25;5.55;;;3.63;;
50495;SDS011;38806;51.554;5.704;2023-08-06T00:47:26;9.43;;;4.28;;
50495;SDS011;38806;51.554;5.704;2023-08-06T00:49:26;7.45;;;4.53;;
50495;SDS011;38806;51.554;5.704;2023-08-06T00:51:26;32.63;;;7.57;;
50495;SDS011;38806;51.554;5.704;2023-08-06T00:53:27;5.72;;;4.18;;
50495;SDS011;38806;51.554;5.704;2023-08-06T00:55:27;6.95;;;3.60;;
50495;SDS011;38806;51.554;5.704;2023-08-06T00:57:27;8.15;;;4.28;;
50495;SDS011;38806;51.554;5.704;2023-08-06T00:59:28;8.63;;;4.50;;
50495;SDS011;38806;51.554;5.704;2023-08-06T01:01:28;8.98;;;4.22;;
50495;SDS011;38806;51.554;5.704;2023-08-06T01:03:29;6.60;;;3.97;;
50495;SDS011;38806;51.554;5.704;2023-08-06T01:05:29;7.78;;;4.80;;
50495;SDS011;38806;51.554;5.704;2023-08-06T01:09:45;10.57;;;5.88;;
50495;SDS011;38806;51.554;5.704;2023-08-06T01:12:05;8.82;;;5.03;;
50495;SDS011;38806;51.554;5.704;2023-08-06T01:14:52;6.90;;;4.07;;
50495;SDS011;38806;51.554;5.704;2023-08-06T01:16:26;7.18;;;4.32;;
50495;SDS011;38806;51.554;5.704;2023-08-06T01:18:27;8.90;;;4.18;;
50495;SDS011;38806;51.554;5.704;2023-08-06T01:20:30;6.18;;;3.58;;
50495;SDS011;38806;51.554;5.704;2023-08-06T01:22:30;6.80;;;3.85;;
50495;SDS011;38806;51.554;5.704;2023-08-06T01:24:31;6.22;;;3.95;;
50495;SDS011;38806;51.554;5.704;2023-08-06T01:26:33;6.50;;;4.28;;
50495;SDS011;38806;51.554;5.704;2023-08-06T01:30:41;6.68;;;3.80;;
50495;SDS011;38806;51.554;5.704;2023-08-06T01:32:42;9.27;;;4.10;;
50495;SDS011;38806;51.554;5.704;2023-08-06T01:34:44;8.27;;;5.03;;
50495;SDS011;38806;51.554;5.704;2023-08-06T01:36:45;9.63;;;4.82;;
50495;SDS011;38806;51.554;5.704;2023-08-06T01:38:45;7.50;;;3.75;;
50495;SDS011;38806;51.554;5.704;2023-08-06T01:40:45;7.40;;;3.53;;
50495;SDS011;38806;51.554;5.704;2023-08-06T01:42:45;9.38;;;3.97;;
50495;SDS011;38806;51.554;5.704;2023-08-06T01:44:46;7.25;;;5.30;;
50495;SDS011;38806;51.554;5.704;2023-08-06T01:46:46;8.83;;;5.50;;
50495;SDS011;38806;51.554;5.704;2023-08-06T01:48:46;9.48;;;5.10;;
50495;SDS011;38806;51.554;5.704;2023-08-06T01:50:46;9.77;;;4.97;;
50495;SDS011;38806;51.554;5.704;2023-08-06T01:52:46;9.13;;;5.13;;
50495;SDS011;38806;51.554;5.704;2023-08-06T01:54:47;7.65;;;4.90;;
50495;SDS011;38806;51.554;5.704;2023-08-06T01:56:47;9.05;;;4.47;;
50495;SDS011;38806;51.554;5.704;2023-08-06T01:58:47;8.15;;;5.03;;
50495;SDS011;38806;51.554;5.704;2023-08-06T02:00:47;6.57;;;4.00;;
50495;SDS011;38806;51.554;5.704;2023-08-06T02:02:47;8.52;;;4.70;;
50495;SDS011;38806;51.554;5.704;2023-08-06T02:04:48;7.90;;;4.50;;
50495;SDS011;38806;51.554;5.704;2023-08-06T02:06:48;9.53;;;3.93;;
50495;SDS011;38806;51.554;5.704;2023-08-06T02:08:48;9.03;;;4.47;;
50495;SDS011;38806;51.554;5.704;2023-08-06T02:10:48;8.77;;;4.72;;
50495;SDS011;38806;51.554;5.704;2023-08-06T02:12:49;8.35;;;3.83;;
50495;SDS011;38806;51.554;5.704;2023-08-06T02:14:49;5.68;;;3.47;;
50495;SDS011;38806;51.554;5.704;2023-08-06T02:16:49;6.97;;;3.90;;
50495;SDS011;38806;51.554;5.704;2023-08-06T02:18:50;7.75;;;3.40;;
50495;SDS011;38806;51.554;5.704;2023-08-06T02:20:57;6.07;;;3.40;;
50495;SDS011;38806;51.554;5.704;2023-08-06T02:22:57;7.60;;;4.30;;
50495;SDS011;38806;51.554;5.704;2023-08-06T02:24:58;9.05;;;4.82;;
50495;SDS011;38806;51.554;5.704;2023-08-06T02:26:59;6.30;;;3.58;;
50495;SDS011;38806;51.554;5.704;2023-08-06T02:28:59;7.25;;;4.05;;
50495;SDS011;38806;51.554;5.704;2023-08-06T02:30:59;5.85;;;3.35;;
50495;SDS011;38806;51.554;5.704;2023-08-06T02:32:59;7.43;;;3.88;;
50495;SDS011;38806;51.554;5.704;2023-08-06T02:34:59;7.90;;;3.53;;
50495;SDS011;38806;51.554;5.704;2023-08-06T02:37:00;7.15;;;4.18;;
50495;SDS011;38806;51.554;5.704;2023-08-06T02:39:00;10.43;;;4.43;;
50495;SDS011;38806;51.554;5.704;2023-08-06T02:41:03;7.40;;;3.70;;
50495;SDS011;38806;51.554;5.704;2023-08-06T02:43:03;7.75;;;4.72;;
50495;SDS011;38806;51.554;5.704;2023-08-06T02:45:04;7.65;;;4.15;;
50495;SDS011;38806;51.554;5.704;2023-08-06T02:47:04;6.85;;;3.78;;
50495;SDS011;38806;51.554;5.704;2023-08-06T02:49:06;8.25;;;4.63;;
50495;SDS011;38806;51.554;5.704;2023-08-06T02:51:06;7.35;;;3.75;;
50495;SDS011;38806;51.554;5.704;2023-08-06T02:53:06;9.07;;;4.03;;
50495;SDS011;38806;51.554;5.704;2023-08-06T02:55:07;7.43;;;4.22;;
50495;SDS011;38806;51.554;5.704;2023-08-06T02:57:07;6.07;;;3.38;;
50495;SDS011;38806;51.554;5.704;2023-08-06T02:59:07;11.13;;;4.60;;
50495;SDS011;38806;51.554;5.704;2023-08-06T03:01:07;8.43;;;5.27;;
50495;SDS011;38806;51.554;5.704;2023-08-06T03:03:08;8.80;;;4.78;;
50495;SDS011;38806;51.554;5.704;2023-08-06T03:05:08;8.45;;;4.43;;
50495;SDS011;38806;51.554;5.704;2023-08-06T03:07:08;5.72;;;3.85;;
50495;SDS011;38806;51.554;5.704;2023-08-06T03:09:08;7.07;;;3.70;;
50495;SDS011;38806;51.554;5.704;2023-08-06T03:11:08;8.67;;;4.50;;
50495;SDS011;38806;51.554;5.704;2023-08-06T03:13:09;5.90;;;3.50;;
50495;SDS011;38806;51.554;5.704;2023-08-06T03:15:09;6.40;;;3.73;;
50495;SDS011;38806;51.554;5.704;2023-08-06T03:17:09;9.27;;;3.90;;
50495;SDS011;38806;51.554;5.704;2023-08-06T03:19:10;9.23;;;5.50;;
50495;SDS011;38806;51.554;5.704;2023-08-06T03:21:10;7.80;;;4.28;;
50495;SDS011;38806;51.554;5.704;2023-08-06T03:23:10;9.77;;;4.57;;
50495;SDS011;38806;51.554;5.704;2023-08-06T03:25:10;7.38;;;3.33;;
50495;SDS011;38806;51.554;5.704;2023-08-06T03:27:10;5.70;;;3.42;;
50495;SDS011;38806;51.554;5.704;2023-08-06T03:29:11;5.97;;;3.40;;
50495;SDS011;38806;51.554;5.704;2023-08-06T03:31:11;6.93;;;3.78;;
50495;SDS011;38806;51.554;5.704;2023-08-06T03:33:11;8.17;;;4.47;;
50495;SDS011;38806;51.554;5.704;2023-08-06T03:35:11;7.78;;;3.95;;
50495;SDS011;38806;51.554;5.704;2023-08-06T03:37:11;6.47;;;4.68;;
50495;SDS011;38806;51.554;5.704;2023-08-06T03:39:12;7.13;;;3.25;;
50495;SDS011;38806;51.554;5.704;2023-08-06T03:41:13;8.50;;;4.10;;
50495;SDS011;38806;51.554;5.704;2023-08-06T03:43:14;7.80;;;4.10;;
50495;SDS011;38806;51.554;5.704;2023-08-06T03:45:14;7.00;;;3.70;;
50495;SDS011;38806;51.554;5.704;2023-08-06T03:47:14;6.35;;;3.65;;
50495;SDS011;38806;51.554;5.704;2023-08-06T03:49:14;6.95;;;3.42;;
50495;SDS011;38806;51.554;5.704;2023-08-06T03:51:15;8.50;;;3.70;;
50495;SDS011;38806;51.554;5.704;2023-08-06T03:53:15;6.22;;;3.92;;
50495;SDS011;38806;51.554;5.704;2023-08-06T03:55:15;6.65;;;3.90;;
50495;SDS011;38806;51.554;5.704;2023-08-06T03:57:15;6.72;;;3.80;;
50495;SDS011;38806;51.554;5.704;2023-08-06T03:59:16;7.78;;;3.50;;
50495;SDS011;38806;51.554;5.704;2023-08-06T04:01:16;9.25;;;4.15;;
50495;SDS011;38806;51.554;5.704;2023-08-06T04:03:16;7.57;;;3.13;;
50495;SDS011;38806;51.554;5.704;2023-08-06T04:05:16;6.20;;;3.45;;
50495;SDS011;38806;51.554;5.704;2023-08-06T04:07:17;6.82;;;3.45;;
50495;SDS011;38806;51.554;5.704;2023-08-06T04:09:17;6.93;;;3.50;;
50495;SDS011;38806;51.554;5.704;2023-08-06T04:11:17;7.15;;;3.75;;
50495;SDS011;38806;51.554;5.704;2023-08-06T04:13:17;6.70;;;3.57;;
50495;SDS011;38806;51.554;5.704;2023-08-06T04:15:17;7.45;;;2.97;;
50495;SDS011;38806;51.554;5.704;2023-08-06T04:17:18;5.43;;;2.88;;
50495;SDS011;38806;51.554;5.704;2023-08-06T04:19:21;6.65;;;4.00;;
50495;SDS011;38806;51.554;5.704;2023-08-06T04:21:21;5.80;;;3.55;;
50495;SDS011;38806;51.554;5.704;2023-08-06T04:23:22;7.68;;;3.97;;
50495;SDS011;38806;51.554;5.704;2023-08-06T04:25:22;10.97;;;4.87;;
50495;SDS011;38806;51.554;5.704;2023-08-06T04:27:23;5.82;;;3.53;;
50495;SDS011;38806;51.554;5.704;2023-08-06T04:29:23;6.40;;;3.75;;
50495;SDS011;38806;51.554;5.704;2023-08-06T04:31:23;8.73;;;5.10;;
50495;SDS011;38806;51.554;5.704;2023-08-06T04:33:24;10.10;;;5.82;;
50495;SDS011;38806;51.554;5.704;2023-08-06T04:35:24;11.75;;;5.30;;
50495;SDS011;38806;51.554;5.704;2023-08-06T04:37:24;12.57;;;6.78;;
50495;SDS011;38806;51.554;5.704;2023-08-06T04:39:24;10.63;;;4.90;;
50495;SDS011;38806;51.554;5.704;2023-08-06T04:41:24;11.50;;;6.13;;
50495;SDS011;38806;51.554;5.704;2023-08-06T04:43:24;13.07;;;6.45;;
50495;SDS011;38806;51.554;5.704;2023-08-06T04:45:25;14.52;;;6.85;;
50495;SDS011;38806;51.554;5.704;2023-08-06T04:47:25;9.77;;;6.25;;
50495;SDS011;38806;51.554;5.704;2023-08-06T04:49:25;12.05;;;6.75;;
50495;SDS011;38806;51.554;5.704;2023-08-06T04:51:26;8.90;;;6.20;;
50495;SDS011;38806;51.554;5.704;2023-08-06T04:53:26;12.80;;;7.00;;
50495;SDS011;38806;51.554;5.704;2023-08-06T04:55:26;12.10;;;6.03;;
50495;SDS011;38806;51.554;5.704;2023-08-06T04:57:26;11.27;;;6.60;;
50495;SDS011;38806;51.554;5.704;2023-08-06T04:59:27;8.27;;;5.72;;
50495;SDS011;38806;51.554;5.704;2023-08-06T05:01:27;11.80;;;7.40;;
50495;SDS011;38806;51.554;5.704;2023-08-06T05:03:28;8.85;;;5.60;;
50495;SDS011;38806;51.554;5.704;2023-08-06T05:05:29;15.52;;;6.75;;
50495;SDS011;38806;51.554;5.704;2023-08-06T05:07:29;11.00;;;6.35;;
50495;SDS011;38806;51.554;5.704;2023-08-06T05:09:29;15.52;;;7.30;;
50495;SDS011;38806;51.554;5.704;2023-08-06T05:11:29;14.57;;;6.80;;
50495;SDS011;38806;51.554;5.704;2023-08-06T05:13:29;11.23;;;6.53;;
50495;SDS011;38806;51.554;5.704;2023-08-06T05:15:30;11.80;;;7.47;;
50495;SDS011;38806;51.554;5.704;2023-08-06T05:17:30;12.30;;;7.28;;
50495;SDS011;38806;51.554;5.704;2023-08-06T05:19:30;12.18;;;6.65;;
50495;SDS011;38806;51.554;5.704;2023-08-06T05:21:30;10.73;;;6.10;;
50495;SDS011;38806;51.554;5.704;2023-08-06T05:23:30;12.07;;;7.68;;
50495;SDS011;38806;51.554;5.704;2023-08-06T05:25:31;10.43;;;7.70;;
50495;SDS011;38806;51.554;5.704;2023-08-06T05:27:31;11.98;;;7.85;;
50495;SDS011;38806;51.554;5.704;2023-08-06T05:29:31;11.30;;;7.68;;
50495;SDS011;38806;51.554;5.704;2023-08-06T05:31:32;11.02;;;7.20;;
50495;SDS011;38806;51.554;5.704;2023-08-06T05:33:32;12.07;;;7.32;;
50495;SDS011;38806;51.554;5.704;2023-08-06T05:35:32;10.85;;;7.53;;
50495;SDS011;38806;51.554;5.704;2023-08-06T05:37:32;11.70;;;7.95;;
50495;SDS011;38806;51.554;5.704;2023-08-06T05:39:32;11.18;;;6.85;;
50495;SDS011;38806;51.554;5.704;2023-08-06T05:41:33;14.02;;;9.57;;
50495;SDS011;38806;51.554;5.704;2023-08-06T05:43:33;12.03;;;8.70;;
50495;SDS011;38806;51.554;5.704;2023-08-06T05:45:33;11.70;;;7.47;;
50495;SDS011;38806;51.554;5.704;2023-08-06T05:47:33;10.77;;;7.03;;
50495;SDS011;38806;51.554;5.704;2023-08-06T05:49:33;11.93;;;7.50;;
50495;SDS011;38806;51.554;5.704;2023-08-06T05:51:34;12.60;;;8.47;;
50495;SDS011;38806;51.554;5.704;2023-08-06T05:53:34;11.05;;;6.45;;
50495;SDS011;38806;51.554;5.704;2023-08-06T05:55:34;11.70;;;6.82;;
50495;SDS011;38806;51.554;5.704;2023-08-06T05:57:35;9.80;;;6.43;;
50495;SDS011;38806;51.554;5.704;2023-08-06T05:59:35;9.25;;;5.88;;
50495;SDS011;38806;51.554;5.704;2023-08-06T06:01:35;9.82;;;7.10;;
50495;SDS011;38806;51.554;5.704;2023-08-06T06:03:36;10.48;;;6.28;;
50495;SDS011;38806;51.554;5.704;2023-08-06T06:05:39;11.88;;;8.57;;
50495;SDS011;38806;51.554;5.704;2023-08-06T06:07:39;11.98;;;6.95;;
50495;SDS011;38806;51.554;5.704;2023-08-06T06:09:39;8.55;;;6.15;;
50495;SDS011;38806;51.554;5.704;2023-08-06T06:11:40;9.98;;;7.13;;
50495;SDS011;38806;51.554;5.704;2023-08-06T06:13:40;12.52;;;7.60;;
50495;SDS011;38806;51.554;5.704;2023-08-06T06:15:40;12.55;;;7.95;;
50495;SDS011;38806;51.554;5.704;2023-08-06T06:17:40;12.25;;;8.05;;
50495;SDS011;38806;51.554;5.704;2023-08-06T06:19:41;11.32;;;8.15;;
50495;SDS011;38806;51.554;5.704;2023-08-06T06:21:41;9.20;;;7.32;;
50495;SDS011;38806;51.554;5.704;2023-08-06T06:23:41;13.02;;;8.48;;
50495;SDS011;38806;51.554;5.704;2023-08-06T06:25:42;13.00;;;8.73;;
50495;SDS011;38806;51.554;5.704;2023-08-06T06:27:42;14.90;;;10.38;;
50495;SDS011;38806;51.554;5.704;2023-08-06T06:29:42;16.58;;;11.50;;
50495;SDS011;38806;51.554;5.704;2023-08-06T06:31:42;14.90;;;12.80;;
50495;SDS011;38806;51.554;5.704;2023-08-06T06:33:42;15.93;;;11.40;;
50495;SDS011;38806;51.554;5.704;2023-08-06T06:35:43;17.75;;;12.15;;
50495;SDS011;38806;51.554;5.704;2023-08-06T06:37:43;19.15;;;11.57;;
50495;SDS011;38806;51.554;5.704;2023-08-06T06:39:43;16.75;;;11.63;;
50495;SDS011;38806;51.554;5.704;2023-08-06T06:41:44;13.10;;;10.55;;
50495;SDS011;38806;51.554;5.704;2023-08-06T06:43:44;13.77;;;10.57;;
50495;SDS011;38806;51.554;5.704;2023-08-06T06:45:44;16.77;;;11.68;;
50495;SDS011;38806;51.554;5.704;2023-08-06T06:47:45;12.43;;;9.73;;
50495;SDS011;38806;51.554;5.704;2023-08-06T06:49:45;12.33;;;8.47;;
50495;SDS011;38806;51.554;5.704;2023-08-06T06:51:45;12.63;;;9.87;;
50495;SDS011;38806;51.554;5.704;2023-08-06T06:53:45;10.87;;;8.80;;
50495;SDS011;38806;51.554;5.704;2023-08-06T06:55:45;11.33;;;8.53;;
50495;SDS011;38806;51.554;5.704;2023-08-06T06:57:49;10.20;;;7.70;;
50495;SDS011;38806;51.554;5.704;2023-08-06T06:59:49;9.63;;;6.18;;
50495;SDS011;38806;51.554;5.704;2023-08-06T07:01:49;10.10;;;5.37;;
50495;SDS011;38806;51.554;5.704;2023-08-06T07:03:49;8.60;;;6.03;;
50495;SDS011;38806;51.554;5.704;2023-08-06T07:05:49;9.50;;;5.30;;
50495;SDS011;38806;51.554;5.704;2023-08-06T07:07:50;18.05;;;6.10;;
50495;SDS011;38806;51.554;5.704;2023-08-06T07:09:52;9.73;;;6.75;;
50495;SDS011;38806;51.554;5.704;2023-08-06T07:11:52;10.90;;;7.15;;
50495;SDS011;38806;51.554;5.704;2023-08-06T07:13:58;12.40;;;8.07;;
50495;SDS011;38806;51.554;5.704;2023-08-06T07:15:58;12.95;;;8.70;;
50495;SDS011;38806;51.554;5.704;2023-08-06T07:17:59;15.57;;;8.63;;
50495;SDS011;38806;51.554;5.704;2023-08-06T07:19:59;14.70;;;9.45;;
50495;SDS011;38806;51.554;5.704;2023-08-06T07:21:59;13.13;;;8.52;;
50495;SDS011;38806;51.554;5.704;2023-08-06T07:23:59;14.20;;;9.83;;
50495;SDS011;38806;51.554;5.704;2023-08-06T07:25:59;16.48;;;10.02;;
50495;SDS011;38806;51.554;5.704;2023-08-06T07:28:00;13.82;;;11.15;;
50495;SDS011;38806;51.554;5.704;2023-08-06T07:30:02;17.35;;;10.57;;
50495;SDS011;38806;51.554;5.704;2023-08-06T07:32:03;16.70;;;11.80;;
50495;SDS011;38806;51.554;5.704;2023-08-06T07:34:03;13.98;;;10.20;;
50495;SDS011;38806;51.554;5.704;2023-08-06T07:36:13;18.33;;;12.88;;
50495;SDS011;38806;51.554;5.704;2023-08-06T07:38:13;16.33;;;10.15;;
50495;SDS011;38806;51.554;5.704;2023-08-06T07:40:14;15.73;;;10.23;;
50495;SDS011;38806;51.554;5.704;2023-08-06T07:42:14;13.63;;;9.57;;
50495;SDS011;38806;51.554;5.704;2023-08-06T07:44:14;13.20;;;8.23;;
50495;SDS011;38806;51.554;5.704;2023-08-06T07:46:15;14.40;;;10.43;;
50495;SDS011;38806;51.554;5.704;2023-08-06T07:48:15;13.57;;;9.10;;
50495;SDS011;38806;51.554;5.704;2023-08-06T07:50:15;15.10;;;9.20;;
50495;SDS011;38806;51.554;5.704;2023-08-06T07:52:15;10.23;;;6.95;;
50495;SDS011;38806;51.554;5.704;2023-08-06T07:54:15;11.10;;;7.45;;
50495;SDS011;38806;51.554;5.704;2023-08-06T07:56:16;11.50;;;6.73;;
50495;SDS011;38806;51.554;5.704;2023-08-06T07:58:16;15.52;;;7.13;;
50495;SDS011;38806;51.554;5.704;2023-08-06T08:00:16;10.57;;;7.05;;
50495;SDS011;38806;51.554;5.704;2023-08-06T08:02:17;8.77;;;6.55;;
50495;SDS011;38806;51.554;5.704;2023-08-06T08:04:17;11.40;;;7.40;;
50495;SDS011;38806;51.554;5.704;2023-08-06T08:06:17;10.23;;;6.43;;
50495;SDS011;38806;51.554;5.704;2023-08-06T08:08:18;9.23;;;6.67;;
50495;SDS011;38806;51.554;5.704;2023-08-06T08:10:18;8.33;;;5.23;;
50495;SDS011;38806;51.554;5.704;2023-08-06T08:12:18;4.70;;;2.70;;
50495;SDS011;38806;51.554;5.704;2023-08-06T08:14:18;3.57;;;2.37;;
50495;SDS011;38806;51.554;5.704;2023-08-06T08:16:18;5.07;;;2.17;;
50495;SDS011;38806;51.554;5.704;2023-08-06T08:18:18;2.67;;;1.90;;
50495;SDS011;38806;51.554;5.704;2023-08-06T08:20:19;2.53;;;1.47;;
50495;SDS011;38806;51.554;5.704;2023-08-06T08:22:19;1.17;;;0.60;;
50495;SDS011;38806;51.554;5.704;2023-08-06T08:24:19;1.35;;;0.70;;
50495;SDS011;38806;51.554;5.704;2023-08-06T08:26:20;1.80;;;0.65;;
50495;SDS011;38806;51.554;5.704;2023-08-06T08:28:20;3.57;;;1.00;;
50495;SDS011;38806;51.554;5.704;2023-08-06T08:30:21;3.55;;;1.30;;
50495;SDS011;38806;51.554;5.704;2023-08-06T08:32:21;2.70;;;1.42;;
50495;SDS011;38806;51.554;5.704;2023-08-06T08:34:21;6.40;;;2.43;;
50495;SDS011;38806;51.554;5.704;2023-08-06T08:36:22;4.30;;;2.50;;
50495;SDS011;38806;51.554;5.704;2023-08-06T08:38:22;6.85;;;3.10;;
50495;SDS011;38806;51.554;5.704;2023-08-06T08:40:22;5.45;;;3.38;;
50495;SDS011;38806;51.554;5.704;2023-08-06T08:42:26;7.45;;;4.28;;
50495;SDS011;38806;51.554;5.704;2023-08-06T08:44:26;6.47;;;3.65;;
50495;SDS011;38806;51.554;5.704;2023-08-06T08:46:29;7.07;;;4.45;;
50495;SDS011;38806;51.554;5.704;2023-08-06T08:48:30;9.10;;;5.05;;
50495;SDS011;38806;51.554;5.704;2023-08-06T08:50:31;11.07;;;6.22;;
50495;SDS011;38806;51.554;5.704;2023-08-06T08:52:31;13.30;;;7.57;;
50495;SDS011;38806;51.554;5.704;2023-08-06T08:54:32;11.38;;;7.50;;
50495;SDS011;38806;51.554;5.704;2023-08-06T08:56:32;14.63;;;9.05;;
50495;SDS011;38806;51.554;5.704;2023-08-06T08:58:32;13.40;;;8.90;;
50495;SDS011;38806;51.554;5.704;2023-08-06T09:00:32;15.23;;;9.27;;
50495;SDS011;38806;51.554;5.704;2023-08-06T09:02:33;13.45;;;9.70;;
50495;SDS011;38806;51.554;5.704;2023-08-06T09:04:34;16.20;;;8.25;;
50495;SDS011;38806;51.554;5.704;2023-08-06T09:06:36;17.92;;;10.77;;
50495;SDS011;38806;51.554;5.704;2023-08-06T09:08:39;14.05;;;9.00;;
50495;SDS011;38806;51.554;5.704;2023-08-06T09:10:41;14.20;;;9.23;;
50495;SDS011;38806;51.554;5.704;2023-08-06T09:12:43;13.75;;;8.25;;
50495;SDS011;38806;51.554;5.704;2023-08-06T09:14:44;15.85;;;8.32;;
50495;SDS011;38806;51.554;5.704;2023-08-06T09:16:44;16.92;;;9.40;;
50495;SDS011;38806;51.554;5.704;2023-08-06T09:18:45;11.93;;;7.53;;
50495;SDS011;38806;51.554;5.704;2023-08-06T09:20:45;12.45;;;7.47;;
50495;SDS011;38806;51.554;5.704;2023-08-06T09:22:48;13.40;;;7.10;;
50495;SDS011;38806;51.554;5.704;2023-08-06T09:24:49;16.13;;;8.20;;
50495;SDS011;38806;51.554;5.704;2023-08-06T09:26:49;15.70;;;8.68;;
50495;SDS011;38806;51.554;5.704;2023-08-06T09:28:49;18.52;;;9.43;;
50495;SDS011;38806;51.554;5.704;2023-08-06T09:30:50;17.98;;;8.48;;
50495;SDS011;38806;51.554;5.704;2023-08-06T09:32:50;16.50;;;8.68;;
50495;SDS011;38806;51.554;5.704;2023-08-06T09:34:55;15.35;;;8.70;;
50495;SDS011;38806;51.554;5.704;2023-08-06T09:36:56;47.58;;;9.85;;
50495;SDS011;38806;51.554;5.704;2023-08-06T09:38:56;20.23;;;10.05;;
50495;SDS011;38806;51.554;5.704;2023-08-06T09:40:56;21.63;;;10.00;;
50495;SDS011;38806;51.554;5.704;2023-08-06T09:42:57;20.27;;;10.27;;
50495;SDS011;38806;51.554;5.704;2023-08-06T09:45:05;21.08;;;10.10;;
50495;SDS011;38806;51.554;5.704;2023-08-06T09:47:05;18.05;;;8.38;;
50495;SDS011;38806;51.554;5.704;2023-08-06T09:49:05;25.02;;;10.02;;
50495;SDS011;38806;51.554;5.704;2023-08-06T09:51:08;13.50;;;7.78;;
50495;SDS011;38806;51.554;5.704;2023-08-06T09:53:08;13.57;;;6.63;;
50495;SDS011;38806;51.554;5.704;2023-08-06T09:55:10;19.30;;;7.85;;
50495;SDS011;38806;51.554;5.704;2023-08-06T09:57:11;14.10;;;7.35;;
50495;SDS011;38806;51.554;5.704;2023-08-06T09:59:11;14.30;;;6.55;;
50495;SDS011;38806;51.554;5.704;2023-08-06T10:01:12;11.75;;;6.18;;
50495;SDS011;38806;51.554;5.704;2023-08-06T10:03:12;15.27;;;7.60;;
50495;SDS011;38806;51.554;5.704;2023-08-06T10:05:14;14.07;;;6.95;;
50495;SDS011;38806;51.554;5.704;2023-08-06T10:07:15;17.92;;;8.88;;
50495;SDS011;38806;51.554;5.704;2023-08-06T10:09:17;17.67;;;8.18;;
50495;SDS011;38806;51.554;5.704;2023-08-06T10:11:18;15.40;;;8.52;;
50495;SDS011;38806;51.554;5.704;2023-08-06T10:13:20;15.27;;;7.72;;
50495;SDS011;38806;51.554;5.704;2023-08-06T10:15:24;11.48;;;7.07;;
50495;SDS011;38806;51.554;5.704;2023-08-06T10:17:25;15.35;;;8.32;;
50495;SDS011;38806;51.554;5.704;2023-08-06T10:19:25;13.07;;;7.13;;
50495;SDS011;38806;51.554;5.704;2023-08-06T10:21:26;15.55;;;7.65;;
50495;SDS011;38806;51.554;5.704;2023-08-06T10:23:32;16.23;;;9.02;;
50495;SDS011;38806;51.554;5.704;2023-08-06T10:25:34;12.93;;;7.32;;
50495;SDS011;38806;51.554;5.704;2023-08-06T10:27:35;14.15;;;7.78;;
50495;SDS011;38806;51.554;5.704;2023-08-06T10:29:35;25.05;;;8.95;;
50495;SDS011;38806;51.554;5.704;2023-08-06T10:31:54;12.23;;;6.18;;
50495;SDS011;38806;51.554;5.704;2023-08-06T10:33:57;18.20;;;7.20;;
50495;SDS011;38806;51.554;5.704;2023-08-06T10:36:00;17.42;;;7.13;;
50495;SDS011;38806;51.554;5.704;2023-08-06T10:40:10;15.10;;;8.00;;
50495;SDS011;38806;51.554;5.704;2023-08-06T10:42:19;16.38;;;7.55;;
50495;SDS011;38806;51.554;5.704;2023-08-06T10:44:19;12.02;;;7.55;;
50495;SDS011;38806;51.554;5.704;2023-08-06T10:46:26;15.43;;;8.32;;
50495;SDS011;38806;51.554;5.704;2023-08-06T10:48:36;14.50;;;6.07;;
50495;SDS011;38806;51.554;5.704;2023-08-06T10:50:36;14.82;;;7.65;;
50495;SDS011;38806;51.554;5.704;2023-08-06T10:52:37;14.13;;;7.38;;
50495;SDS011;38806;51.554;5.704;2023-08-06T10:54:37;16.17;;;6.35;;
50495;SDS011;38806;51.554;5.704;2023-08-06T10:56:40;13.43;;;5.72;;
50495;SDS011;38806;51.554;5.704;2023-08-06T10:58:41;12.77;;;6.13;;
50495;SDS011;38806;51.554;5.704;2023-08-06T11:00:42;10.75;;;5.88;;
50495;SDS011;38806;51.554;5.704;2023-08-06T11:02:42;10.68;;;6.53;;
50495;SDS011;38806;51.554;5.704;2023-08-06T11:04:44;14.02;;;7.03;;
50495;SDS011;38806;51.554;5.704;2023-08-06T11:06:44;13.00;;;6.07;;
50495;SDS011;38806;51.554;5.704;2023-08-06T11:08:47;10.18;;;5.90;;
50495;SDS011;38806;51.554;5.704;2023-08-06T11:10:48;13.38;;;6.45;;
50495;SDS011;38806;51.554;5.704;2023-08-06T11:12:48;15.98;;;7.93;;
50495;SDS011;38806;51.554;5.704;2023-08-06T11:14:51;17.80;;;6.78;;
50495;SDS011;38806;51.554;5.704;2023-08-06T11:16:51;17.00;;;6.40;;
50495;SDS011;38806;51.554;5.704;2023-08-06T11:18:52;12.98;;;6.35;;
50495;SDS011;38806;51.554;5.704;2023-08-06T11:20:54;9.18;;;5.57;;
50495;SDS011;38806;51.554;5.704;2023-08-06T11:22:54;10.32;;;4.93;;
50495;SDS011;38806;51.554;5.704;2023-08-06T11:24:54;11.20;;;5.40;;
50495;SDS011;38806;51.554;5.704;2023-08-06T11:26:54;11.93;;;6.60;;
50495;SDS011;38806;51.554;5.704;2023-08-06T11:28:55;10.52;;;5.32;;
50495;SDS011;38806;51.554;5.704;2023-08-06T11:30:55;13.55;;;6.15;;
50495;SDS011;38806;51.554;5.704;2023-08-06T11:32:56;9.07;;;5.43;;
50495;SDS011;38806;51.554;5.704;2023-08-06T11:34:57;9.23;;;5.68;;
50495;SDS011;38806;51.554;5.704;2023-08-06T11:36:57;10.60;;;6.82;;
50495;SDS011;38806;51.554;5.704;2023-08-06T11:39:00;10.15;;;5.72;;
50495;SDS011;38806;51.554;5.704;2023-08-06T11:41:00;11.55;;;4.57;;
50495;SDS011;38806;51.554;5.704;2023-08-06T11:43:01;10.80;;;4.80;;
50495;SDS011;38806;51.554;5.704;2023-08-06T11:45:01;10.15;;;5.18;;
50495;SDS011;38806;51.554;5.704;2023-08-06T11:47:03;11.05;;;4.20;;
50495;SDS011;38806;51.554;5.704;2023-08-06T11:49:04;9.52;;;4.32;;
50495;SDS011;38806;51.554;5.704;2023-08-06T11:51:04;10.50;;;4.63;;
50495;SDS011;38806;51.554;5.704;2023-08-06T11:53:15;9.50;;;4.10;;
50495;SDS011;38806;51.554;5.704;2023-08-06T11:55:15;10.32;;;3.72;;
50495;SDS011;38806;51.554;5.704;2023-08-06T11:57:15;9.85;;;4.32;;
50495;SDS011;38806;51.554;5.704;2023-08-06T11:59:16;8.98;;;3.75;;
50495;SDS011;38806;51.554;5.704;2023-08-06T12:01:19;9.18;;;3.90;;
50495;SDS011;38806;51.554;5.704;2023-08-06T12:03:19;6.28;;;3.60;;
50495;SDS011;38806;51.554;5.704;2023-08-06T12:05:21;6.97;;;3.67;;
50495;SDS011;38806;51.554;5.704;2023-08-06T12:07:26;10.18;;;4.65;;
50495;SDS011;38806;51.554;5.704;2023-08-06T12:09:26;11.48;;;4.93;;